Fancher, Illinois
Current Conditions -  °F | °C
As of 11:35 AM on Tuesday 21 Oct 2014 (Local Time) from K1H2 Reporting Station
Clear Clear  
Wind Chill: 60°   Ceiling: Unl
Heat Index: 60°   Visibility: 10mi
Dew Point: 40°   Wind: 3mph
Humidity: 48%   Direction: 30°NNE
Pressure: 30.13"   Gusts: 16mph
Location:  39.2654°N, 88.7413°W
Report Text: K1H2 211635Z AUTO 03003G14KT 10SM CLR 16/05 A3013 RMK AO2 T01570046
Loading
Personal Weather Stations






























Interactive Weather Map
Tropical Storm Tracking
New forecast layout! Learn more

10-Day Weather Forecast

Advertisements
Track Severe Weather on mobile